createdAt,value
2022-08-12T00:01:03.030Z,18.51
2022-08-12T00:03:50.566Z,18.50
2022-08-12T00:06:37.807Z,18.49
2022-08-12T00:09:26.502Z,18.50
2022-08-12T00:12:13.408Z,18.52
2022-08-12T00:15:01.370Z,18.52
2022-08-12T00:17:48.199Z,18.53
2022-08-12T00:20:35.240Z,18.51
2022-08-12T00:23:21.208Z,18.42
2022-08-12T00:26:22.395Z,18.30
2022-08-12T00:29:10.292Z,18.13
2022-08-12T00:31:57.732Z,18.09
2022-08-12T00:34:44.049Z,18.07
2022-08-12T00:37:32.880Z,18.07
2022-08-12T00:40:19.363Z,18.02
2022-08-12T00:42:47.338Z,17.97
2022-08-12T00:45:16.488Z,17.97
2022-08-12T00:47:46.920Z,17.97
2022-08-12T00:50:19.531Z,17.98
2022-08-12T00:52:48.536Z,17.96
2022-08-12T00:55:18.366Z,17.96
2022-08-12T00:57:50.618Z,17.92
2022-08-12T01:00:22.579Z,17.86
2022-08-12T01:02:55.796Z,17.79
2022-08-12T01:05:44.325Z,17.76
2022-08-12T01:08:44.868Z,17.78
2022-08-12T01:11:33.092Z,17.75
2022-08-12T01:14:03.671Z,17.81
2022-08-12T01:16:32.286Z,17.86
2022-08-12T01:19:03.314Z,17.95
2022-08-12T01:22:10.988Z,18.01
2022-08-12T01:24:50.769Z,18.11
2022-08-12T01:27:20.723Z,18.11
2022-08-12T01:29:51.120Z,18.23
2022-08-12T01:32:21.148Z,18.28
2022-08-12T01:34:56.573Z,18.30
2022-08-12T01:37:26.700Z,18.33
2022-08-12T01:40:36.001Z,18.33
2022-08-12T01:42:49.765Z,18.34
2022-08-12T01:45:25.088Z,18.30
2022-08-12T01:48:06.523Z,18.28
2022-08-12T01:50:43.199Z,18.23
2022-08-12T01:53:16.076Z,18.19
2022-08-12T01:55:48.436Z,18.14
2022-08-12T01:58:24.883Z,18.09
2022-08-12T02:00:58.700Z,18.09
2022-08-12T02:04:03.193Z,18.10
2022-08-12T02:06:54.710Z,18.12
2022-08-12T02:09:55.363Z,18.14
2022-08-12T02:12:37.122Z,18.14
2022-08-12T02:15:13.244Z,18.13
2022-08-12T02:17:54.475Z,18.14
2022-08-12T02:20:43.875Z,18.13
2022-08-12T02:23:20.558Z,18.17
2022-08-12T02:25:49.381Z,18.19
2022-08-12T02:28:19.919Z,18.20
2022-08-12T02:30:49.083Z,18.23
2022-08-12T02:33:18.592Z,18.21
2022-08-12T02:35:47.540Z,18.23
2022-08-12T02:38:16.488Z,18.22
2022-08-12T02:40:45.518Z,18.24
2022-08-12T02:43:18.922Z,18.25
2022-08-12T02:45:54.812Z,18.24
2022-08-12T02:48:30.322Z,18.23
2022-08-12T02:51:02.756Z,18.26
2022-08-12T02:53:32.346Z,18.28
2022-08-12T02:56:02.906Z,18.29
2022-08-12T02:58:33.500Z,18.29
2022-08-12T03:01:08.153Z,18.28
2022-08-12T03:03:38.928Z,18.29
2022-08-12T03:06:09.957Z,18.29
2022-08-12T03:08:44.800Z,18.30
2022-08-12T03:11:24.899Z,18.27
2022-08-12T03:13:57.590Z,18.29
2022-08-12T03:16:30.504Z,18.31
2022-08-12T03:19:04.172Z,18.30
2022-08-12T03:21:54.625Z,18.30
2022-08-12T03:24:25.640Z,18.33
2022-08-12T03:27:00.131Z,18.34
2022-08-12T03:29:32.958Z,18.38
2022-08-12T03:32:36.209Z,18.40
2022-08-12T03:35:08.052Z,18.43
2022-08-12T03:37:38.341Z,18.44
2022-08-12T03:40:28.957Z,18.46
2022-08-12T03:43:15.775Z,18.47
2022-08-12T03:46:03.130Z,18.48
2022-08-12T03:48:50.939Z,18.48
2022-08-12T03:51:37.329Z,18.47
2022-08-12T03:54:24.107Z,18.47
2022-08-12T03:57:10.667Z,18.49
2022-08-12T03:59:57.457Z,18.51
2022-08-12T04:02:26.931Z,18.50
2022-08-12T04:04:57.331Z,18.46
2022-08-12T04:07:30.190Z,18.43
2022-08-12T04:09:59.505Z,18.42
2022-08-12T04:12:46.240Z,18.41
2022-08-12T04:15:15.101Z,18.43
2022-08-12T04:18:07.029Z,18.41
2022-08-12T04:20:34.951Z,18.43
2022-08-12T04:23:04.602Z,18.45
2022-08-12T04:25:34.050Z,18.47
2022-08-12T04:28:13.119Z,18.46
2022-08-12T04:30:43.353Z,18.41
2022-08-12T04:33:12.914Z,18.37
2022-08-12T04:35:43.547Z,18.34
2022-08-12T04:38:13.084Z,18.45
2022-08-12T04:40:41.936Z,18.58
2022-08-12T04:44:00.566Z,18.70
2022-08-12T04:45:59.796Z,18.72
2022-08-12T04:48:28.585Z,18.86
2022-08-12T04:51:00.498Z,19.02
2022-08-12T04:53:31.371Z,19.17
2022-08-12T04:56:00.936Z,19.28
2022-08-12T04:58:30.161Z,19.37
2022-08-12T05:00:58.979Z,19.38
2022-08-12T05:03:27.730Z,19.34
2022-08-12T05:05:57.030Z,19.31
2022-08-12T05:08:27.399Z,19.41
2022-08-12T05:10:55.910Z,19.43
2022-08-12T05:13:27.689Z,19.43
2022-08-12T05:16:03.692Z,19.53
2022-08-12T05:18:33.049Z,19.76
2022-08-12T05:21:03.863Z,19.95
2022-08-12T05:23:34.094Z,20.20
2022-08-12T05:26:03.172Z,20.41
2022-08-12T05:28:31.733Z,20.56
2022-08-12T05:31:01.902Z,20.63
2022-08-12T05:33:37.702Z,20.78
2022-08-12T05:36:08.796Z,20.94
2022-08-12T05:38:57.381Z,20.99
2022-08-12T05:41:26.644Z,21.16
2022-08-12T05:43:56.898Z,21.22
2022-08-12T05:46:26.948Z,21.49
2022-08-12T05:48:56.785Z,21.60
2022-08-12T05:51:39.788Z,21.73
2022-08-12T05:54:11.999Z,21.63
2022-08-12T05:56:41.760Z,21.64
2022-08-12T05:59:12.159Z,21.99
2022-08-12T06:02:09.913Z,22.18
2022-08-12T06:04:32.352Z,21.95
2022-08-12T06:07:01.939Z,21.83
2022-08-12T06:09:32.419Z,21.77
2022-08-12T06:12:05.983Z,21.95
2022-08-12T06:14:37.755Z,22.14
2022-08-12T06:17:09.524Z,22.12
2022-08-12T06:20:27.001Z,21.99
2022-08-12T06:22:27.904Z,22.14
2022-08-12T06:24:59.618Z,22.38
2022-08-12T06:27:28.279Z,22.70
2022-08-12T06:30:09.041Z,23.16
2022-08-12T06:32:51.621Z,23.53
2022-08-12T06:35:48.909Z,23.59
2022-08-12T06:38:20.549Z,23.71
2022-08-12T06:41:12.332Z,24.14
2022-08-12T06:44:06.745Z,24.39
2022-08-12T06:46:31.275Z,24.17
2022-08-12T06:49:00.190Z,23.75
2022-08-12T06:51:30.441Z,23.57
2022-08-12T06:53:59.827Z,23.93
2022-08-12T06:57:01.822Z,24.12
2022-08-12T06:59:21.550Z,24.10
2022-08-12T07:01:51.629Z,24.12
2022-08-12T07:04:38.971Z,24.05
2022-08-12T07:07:09.755Z,23.91
2022-08-12T07:10:06.033Z,23.71
2022-08-12T07:12:29.918Z,23.63
2022-08-12T07:14:59.433Z,23.61
2022-08-12T07:17:36.516Z,23.52
2022-08-12T07:20:06.482Z,23.29
2022-08-12T07:22:35.420Z,22.99
2022-08-12T07:25:23.595Z,23.38
2022-08-12T07:27:57.931Z,23.87
2022-08-12T07:30:27.059Z,24.09
2022-08-12T07:33:01.285Z,23.53
2022-08-12T07:35:31.042Z,24.09
2022-08-12T07:38:00.641Z,25.44
2022-08-12T07:40:30.270Z,27.78
2022-08-12T07:43:00.191Z,30.06
2022-08-12T07:45:29.146Z,31.21
2022-08-12T07:47:58.029Z,31.30
2022-08-12T07:50:26.754Z,30.73
2022-08-12T07:52:55.233Z,29.95
2022-08-12T07:55:23.972Z,29.16
2022-08-12T07:57:56.084Z,28.82
2022-08-12T08:00:27.496Z,28.40
2022-08-12T08:02:56.618Z,28.24
2022-08-12T08:05:26.868Z,28.20
2022-08-12T08:07:55.784Z,28.48
2022-08-12T08:10:26.312Z,28.62
2022-08-12T08:12:54.280Z,28.85
2022-08-12T08:15:44.501Z,28.34
2022-08-12T08:18:25.608Z,28.50
2022-08-12T08:20:56.477Z,28.80
2022-08-12T08:23:56.303Z,28.79
2022-08-12T08:26:27.437Z,29.53
2022-08-12T08:28:57.005Z,29.51
2022-08-12T08:31:25.820Z,29.45
2022-08-12T08:34:09.264Z,29.24
2022-08-12T08:36:45.385Z,29.83
2022-08-12T08:39:17.154Z,29.82
2022-08-12T08:42:16.101Z,30.10
2022-08-12T08:44:46.872Z,30.01
2022-08-12T08:47:22.118Z,29.40
2022-08-12T08:49:52.661Z,29.03
2022-08-12T08:52:39.701Z,28.82
2022-08-12T08:55:10.823Z,29.11
2022-08-12T08:57:43.584Z,29.15
2022-08-12T09:00:17.282Z,29.26
2022-08-12T09:02:49.560Z,30.10
2022-08-12T09:06:01.772Z,30.98
2022-08-12T09:08:26.631Z,30.81
2022-08-12T09:14:11.764Z,30.54
2022-08-12T09:16:39.465Z,31.06
2022-08-12T09:19:27.193Z,31.24
2022-08-12T09:22:00.342Z,31.50
2022-08-12T09:24:30.168Z,31.63
2022-08-12T09:27:00.718Z,31.45
2022-08-12T09:30:11.757Z,31.06
2022-08-12T09:32:55.965Z,30.40
2022-08-12T09:35:18.589Z,30.73
2022-08-12T09:37:58.556Z,31.54
2022-08-12T09:41:02.536Z,32.72
2022-08-12T09:43:36.516Z,31.60
2022-08-12T09:46:21.857Z,30.57
2022-08-12T09:48:56.254Z,30.22
2022-08-12T09:51:37.826Z,30.19
2022-08-12T09:54:32.671Z,30.10
2022-08-12T09:58:08.162Z,29.88
2022-08-12T10:00:15.277Z,29.03
2022-08-12T10:02:44.430Z,28.46
2022-08-12T10:05:20.510Z,28.16
2022-08-12T10:07:49.172Z,28.50
2022-08-12T10:10:24.252Z,28.66
2022-08-12T10:13:38.838Z,28.91
2022-08-12T10:16:22.099Z,30.22
2022-08-12T10:18:53.793Z,30.41
2022-08-12T10:21:24.258Z,29.75
2022-08-12T10:24:09.105Z,28.87
2022-08-12T10:26:58.253Z,28.17
2022-08-12T10:30:03.068Z,28.78
2022-08-12T10:32:45.134Z,29.61
2022-08-12T10:35:16.831Z,29.69
2022-08-12T10:38:35.614Z,29.94
2022-08-12T10:40:56.736Z,30.75
2022-08-12T10:43:54.901Z,33.17
2022-08-12T10:46:31.519Z,36.10
2022-08-12T10:49:06.374Z,36.56
2022-08-12T10:52:32.372Z,35.87
2022-08-12T10:54:42.718Z,35.72
2022-08-12T10:57:32.652Z,35.08
2022-08-12T11:00:34.780Z,33.47
2022-08-12T11:04:31.667Z,33.12
2022-08-12T11:07:07.911Z,32.51
2022-08-12T11:08:43.113Z,31.30
2022-08-12T11:12:35.671Z,30.88
2022-08-12T11:14:48.322Z,31.01
2022-08-12T11:17:33.944Z,31.41
2022-08-12T11:19:46.738Z,31.24
2022-08-12T11:22:18.037Z,31.80
2022-08-12T11:24:53.794Z,32.30
2022-08-12T11:27:24.308Z,33.42
2022-08-12T11:30:03.755Z,33.28
2022-08-12T11:32:38.873Z,33.22
2022-08-12T11:35:11.599Z,32.11
2022-08-12T11:37:58.857Z,28.72
2022-08-12T11:40:28.775Z,29.07
2022-08-12T11:43:18.549Z,29.17
2022-08-12T11:45:47.635Z,29.45
2022-08-12T11:48:26.720Z,29.93
2022-08-12T11:50:56.693Z,29.58
2022-08-12T11:53:57.119Z,29.77
2022-08-12T11:56:13.735Z,30.64
2022-08-12T12:02:03.114Z,30.69
2022-08-12T12:04:29.057Z,31.25
2022-08-12T12:07:06.987Z,31.63
2022-08-12T12:09:52.332Z,31.65
2022-08-12T12:12:25.124Z,31.57
2022-08-12T12:14:55.808Z,31.21
2022-08-12T12:17:25.508Z,31.14
2022-08-12T12:19:55.620Z,31.67
2022-08-12T12:22:27.130Z,32.02
2022-08-12T12:25:09.002Z,31.60
2022-08-12T12:28:05.931Z,31.80
2022-08-12T12:30:35.386Z,32.02
2022-08-12T12:33:04.727Z,32.25
2022-08-12T12:36:06.149Z,32.59
2022-08-12T12:38:25.407Z,31.78
2022-08-12T12:40:54.833Z,30.49
2022-08-12T12:43:29.110Z,29.54
2022-08-12T12:46:12.752Z,29.23
2022-08-12T12:48:44.516Z,29.10
2022-08-12T12:51:48.276Z,29.47
2022-08-12T12:54:09.860Z,28.78
2022-08-12T12:56:42.679Z,28.63
2022-08-12T12:59:54.718Z,29.86
2022-08-12T13:02:08.036Z,31.14
2022-08-12T13:04:37.936Z,32.45
2022-08-12T13:07:08.467Z,33.24
2022-08-12T13:09:37.185Z,33.66
2022-08-12T13:12:10.457Z,32.80
2022-08-12T13:14:39.878Z,32.47
2022-08-12T13:17:14.772Z,32.51
2022-08-12T13:19:46.596Z,32.85
2022-08-12T13:22:23.634Z,32.86
2022-08-12T13:24:56.777Z,33.73
2022-08-12T13:27:35.119Z,32.12
2022-08-12T13:30:11.570Z,29.49
2022-08-12T13:32:42.114Z,30.76
2022-08-12T13:35:20.217Z,31.57
2022-08-12T13:38:02.402Z,32.26
2022-08-12T13:40:33.629Z,32.16
2022-08-12T13:43:07.059Z,30.70
2022-08-12T13:45:36.857Z,29.93
2022-08-12T13:48:06.181Z,29.80
2022-08-12T13:50:37.763Z,29.41
2022-08-12T13:53:24.223Z,28.64
2022-08-12T13:56:01.635Z,27.36
2022-08-12T13:58:32.906Z,25.36
2022-08-12T14:01:06.517Z,24.62
2022-08-12T14:03:51.481Z,24.03
2022-08-12T14:06:21.507Z,24.10
2022-08-12T14:08:56.483Z,24.11
2022-08-12T14:11:27.902Z,24.16
2022-08-12T14:14:03.168Z,24.23
2022-08-12T14:16:46.849Z,23.96
2022-08-12T14:19:22.757Z,23.61
2022-08-12T14:21:59.182Z,23.86
2022-08-12T14:24:40.583Z,24.26
2022-08-12T14:27:11.307Z,23.97
2022-08-12T14:30:05.591Z,24.00
2022-08-12T14:32:35.289Z,24.20
2022-08-12T14:35:09.009Z,24.42
2022-08-12T14:37:56.853Z,25.06
2022-08-12T14:40:30.126Z,25.59
2022-08-12T14:42:59.844Z,25.47
2022-08-12T14:45:44.643Z,25.77
2022-08-12T14:48:19.679Z,26.08
2022-08-12T14:52:16.161Z,26.69
2022-08-12T14:54:49.942Z,27.49
2022-08-12T14:59:56.302Z,28.14
2022-08-12T15:02:28.723Z,29.30
2022-08-12T15:05:00.843Z,29.82
2022-08-12T15:07:33.646Z,29.66
2022-08-12T15:10:31.742Z,30.07
2022-08-12T15:13:07.446Z,30.99
2022-08-12T15:15:43.723Z,31.58
2022-08-12T15:18:20.840Z,32.06
2022-08-12T15:20:52.314Z,31.98
2022-08-12T15:23:23.903Z,31.93
2022-08-12T15:25:59.769Z,30.92
2022-08-12T15:28:33.917Z,30.74
2022-08-12T15:31:09.532Z,30.19
2022-08-12T15:33:50.595Z,29.55
2022-08-12T15:36:53.901Z,28.76
2022-08-12T15:39:17.256Z,28.08
2022-08-12T15:41:50.315Z,27.73
2022-08-12T15:44:42.098Z,27.09
2022-08-12T15:47:10.269Z,26.20
2022-08-12T15:49:54.659Z,25.94
2022-08-12T15:52:29.989Z,25.73
2022-08-12T15:55:05.922Z,25.17
2022-08-12T15:57:50.435Z,25.06
2022-08-12T16:00:32.928Z,24.42
2022-08-12T16:03:05.831Z,24.16
2022-08-12T16:06:13.211Z,22.13
2022-08-12T16:08:36.567Z,21.11
2022-08-12T16:11:07.216Z,20.55
2022-08-12T16:13:44.248Z,20.20
2022-08-12T16:16:23.448Z,20.11
2022-08-12T16:18:56.070Z,19.92
2022-08-12T16:21:51.202Z,19.73
2022-08-12T16:24:14.463Z,19.61
2022-08-12T16:26:45.210Z,19.67
2022-08-12T16:29:15.382Z,19.57
2022-08-12T16:31:46.359Z,19.64
2022-08-12T16:34:41.964Z,19.73
2022-08-12T16:37:09.538Z,19.91
2022-08-12T16:39:59.540Z,20.03
2022-08-12T16:42:28.866Z,20.10
2022-08-12T16:44:59.557Z,20.12
2022-08-12T16:47:58.453Z,20.18
2022-08-12T16:50:20.572Z,19.90
2022-08-12T16:53:03.249Z,19.81
2022-08-12T16:55:42.179Z,19.88
2022-08-12T16:58:28.588Z,19.96
2022-08-12T17:01:02.088Z,20.05
2022-08-12T17:03:37.044Z,20.17
2022-08-12T17:06:07.387Z,20.29
2022-08-12T17:08:38.832Z,20.35
2022-08-12T17:11:18.338Z,20.37
2022-08-12T17:13:53.337Z,20.29
2022-08-12T17:16:24.154Z,20.15
2022-08-12T17:18:57.654Z,20.10
2022-08-12T17:21:41.047Z,20.13
2022-08-12T17:24:21.607Z,20.13
2022-08-12T17:26:54.160Z,20.18
2022-08-12T17:30:00.779Z,20.25
2022-08-12T17:32:14.501Z,20.28
2022-08-12T17:35:02.523Z,20.28
2022-08-12T17:37:33.900Z,20.29
2022-08-12T17:40:12.041Z,20.29
2022-08-12T17:42:48.217Z,20.31
2022-08-12T17:45:19.794Z,20.29
2022-08-12T17:48:01.436Z,20.23
2022-08-12T17:50:38.725Z,20.20
2022-08-12T17:53:10.735Z,20.18
2022-08-12T17:55:47.852Z,20.15
2022-08-12T17:58:18.623Z,20.13
2022-08-12T18:00:51.891Z,20.10
2022-08-12T18:04:07.032Z,20.00
2022-08-12T18:06:14.940Z,19.95
2022-08-12T18:08:54.724Z,19.95
2022-08-12T18:12:04.242Z,19.92
2022-08-12T18:14:31.222Z,19.91
2022-08-12T18:17:01.844Z,19.88
2022-08-12T18:19:34.252Z,19.91
2022-08-12T18:22:31.753Z,19.96
2022-08-12T18:25:04.799Z,19.97
2022-08-12T18:27:44.908Z,19.99
2022-08-12T18:30:29.094Z,20.00
2022-08-12T18:33:04.623Z,19.98
2022-08-12T18:35:47.519Z,19.98
2022-08-12T18:38:25.825Z,19.96
2022-08-12T18:41:21.629Z,19.96
2022-08-12T18:43:59.927Z,19.92
2022-08-12T18:46:35.940Z,19.86
2022-08-12T18:49:17.761Z,19.81
2022-08-12T18:51:55.384Z,19.76
2022-08-12T18:54:30.494Z,19.72
2022-08-12T18:57:03.868Z,19.70
2022-08-12T19:00:02.371Z,19.69
2022-08-12T19:02:23.391Z,19.62
2022-08-12T19:04:52.945Z,19.61
2022-08-12T19:07:24.096Z,19.62
2022-08-12T19:09:58.848Z,19.61
2022-08-12T19:12:57.117Z,19.61
2022-08-12T19:15:29.889Z,19.59
2022-08-12T19:18:01.130Z,19.57
2022-08-12T19:20:32.965Z,19.57
2022-08-12T19:23:08.031Z,19.58
2022-08-12T19:25:59.529Z,19.57
2022-08-12T19:28:35.362Z,19.54
2022-08-12T19:31:45.021Z,19.50
2022-08-12T19:37:27.354Z,19.42
2022-08-12T19:40:20.474Z,19.42
2022-08-12T19:43:01.460Z,19.45
2022-08-12T19:45:43.328Z,19.45
2022-08-12T19:48:18.817Z,19.52
2022-08-12T19:50:50.447Z,19.48
2022-08-12T19:53:24.043Z,19.45
2022-08-12T19:55:53.687Z,19.43
2022-08-12T19:58:24.831Z,19.43
2022-08-12T20:00:55.008Z,19.44
2022-08-12T20:03:37.938Z,19.45
2022-08-12T20:06:16.068Z,19.39
2022-08-12T20:08:53.854Z,19.39
2022-08-12T20:12:12.405Z,19.39
2022-08-12T20:14:19.559Z,19.41
2022-08-12T20:16:54.498Z,19.39
2022-08-12T20:20:16.347Z,19.37
2022-08-12T20:22:24.335Z,19.27
2022-08-12T20:25:01.045Z,19.26
2022-08-12T20:28:02.771Z,19.22
2022-08-12T20:30:38.173Z,19.23
2022-08-12T20:33:18.584Z,19.18
2022-08-12T20:36:13.706Z,19.23
2022-08-12T20:38:40.493Z,19.26
2022-08-12T20:41:16.438Z,19.30
2022-08-12T20:43:54.948Z,19.29
2022-08-12T20:46:28.139Z,19.30
2022-08-12T20:48:57.587Z,19.30
2022-08-12T20:51:40.777Z,19.29
2022-08-12T20:54:16.791Z,19.30
2022-08-12T20:56:47.245Z,19.32
2022-08-12T20:59:20.342Z,19.32
2022-08-12T21:01:53.974Z,19.31
2022-08-12T21:04:40.550Z,19.32
2022-08-12T21:07:14.430Z,19.33
2022-08-12T21:09:47.424Z,19.31
2022-08-12T21:12:27.653Z,19.31
2022-08-12T21:15:24.103Z,19.32
2022-08-12T21:18:10.584Z,19.30
2022-08-12T21:20:52.915Z,19.27
2022-08-12T21:23:22.926Z,19.23
2022-08-12T21:25:52.707Z,19.25
2022-08-12T21:28:27.485Z,19.25
2022-08-12T21:32:37.871Z,19.29
2022-08-12T21:34:08.690Z,19.31
2022-08-12T21:36:48.060Z,19.32
2022-08-12T21:39:21.072Z,19.33
2022-08-12T21:41:54.437Z,19.35
2022-08-12T21:45:43.997Z,19.35
2022-08-12T21:47:21.518Z,19.37
2022-08-12T21:50:04.368Z,19.38
2022-08-12T21:52:40.375Z,19.41
2022-08-12T21:55:18.366Z,19.42
2022-08-12T21:57:53.627Z,19.39
2022-08-12T22:00:33.015Z,19.31
2022-08-12T22:04:01.599Z,19.14
2022-08-12T22:06:30.547Z,19.13
2022-08-12T22:09:16.233Z,19.13
2022-08-12T22:11:56.163Z,19.11
2022-08-12T22:14:28.860Z,19.11
2022-08-12T22:16:58.537Z,19.08
2022-08-12T22:19:27.356Z,19.08
2022-08-12T22:21:58.845Z,19.06
2022-08-12T22:24:33.988Z,19.06
2022-08-12T22:27:18.002Z,19.00
2022-08-12T22:30:16.785Z,18.89
2022-08-12T22:32:49.674Z,18.78
2022-08-12T22:35:47.282Z,18.74
2022-08-12T22:38:26.673Z,18.71
2022-08-12T22:41:01.037Z,18.71
2022-08-12T22:43:58.876Z,18.68
2022-08-12T22:46:53.162Z,18.69
2022-08-12T22:49:36.534Z,18.69
2022-08-12T22:52:13.158Z,18.68
2022-08-12T22:54:46.432Z,18.69
2022-08-12T22:57:49.095Z,18.74
2022-08-12T23:00:24.067Z,18.74
2022-08-12T23:02:56.948Z,18.75
2022-08-12T23:05:56.704Z,18.73
2022-08-12T23:08:22.774Z,18.74
2022-08-12T23:10:52.975Z,18.72
2022-08-12T23:13:43.811Z,18.72
2022-08-12T23:16:27.960Z,18.71
2022-08-12T23:19:09.244Z,18.71
2022-08-12T23:22:04.326Z,18.74
2022-08-12T23:24:30.160Z,18.74
2022-08-12T23:27:18.360Z,18.75
2022-08-12T23:30:05.907Z,18.73
2022-08-12T23:32:37.620Z,18.72
2022-08-12T23:35:08.306Z,18.75
2022-08-12T23:37:47.637Z,18.75
2022-08-12T23:40:24.242Z,18.79
2022-08-12T23:42:55.348Z,18.77
2022-08-12T23:45:32.029Z,18.73
2022-08-12T23:48:03.551Z,18.74
2022-08-12T23:50:33.993Z,18.73
2022-08-12T23:53:17.170Z,18.73
2022-08-12T23:55:54.956Z,18.70
2022-08-12T23:58:28.726Z,18.70
